AirNav   Air Wisconsin Up To $57,000 Bonus
 
 472 users online  

WS46 J & L Aviation Airport
Ripon, Wisconsin, USA

GOING TO RIPON?


FAA INFORMATION EFFECTIVE 26 JANUARY 2023

Location

FAA Identifier: WS46
Lat/Long: 43-49-51.4360N 088-53-19.4040W
43-49.857267N 088-53.323400W
43.8309544,-88.8887233
(estimated)
Elevation: 975 ft. / 297 m (estimated)
Variation: 01W (1995)
From city: 2 miles SW of RIPON, WI
Time zone: UTC -6 (UTC -5 during Daylight Saving Time)
Zip code: 54971

Airport Operations

Airport use: Private use. Permission required prior to landing
Activation date: 03/1998
Control tower: no
ARTCC: CHICAGO CENTER
FSS: GREEN BAY FLIGHT SERVICE STATION
Attendance: UNATNDD
Wind indicator: yes
Segmented circle: no
Lights: SS-SR

Airport Communications

WX ASOS at OSH (17 nm NE): PHONE 920-426-1644
WX ASOS at FLD (18 nm E): 134.0 (920-922-4444)

Nearby radio navigation aids

VOR radial/distance  VOR name  Freq  Var
OSHr234/17.3OSHKOSH VORTAC116.7502E

 
NDB name  Hdg/Dist  Freq  Var  ID
POBER263/14.639503WOS --- ...

Airport Services

Runway Information

Runway 9/27

Dimensions: 2200 x 80 ft. / 671 x 24 m
20 FT OF WIDTH IS GRAVEL.
Surface: turf/gravel
Runway edge lights: non-standard
2 GREEN LGTS AT EACH RY END & 5 WHITE LGTS ON EACH SIDE OF RY.
RUNWAY 9  RUNWAY 27
Traffic pattern: leftleft
Obstructions: 15 ft. road, 200 ft. from runwaynone

Airport Ownership and Management from official FAA records

Ownership: Privately-owned
Owner: TOM WILLETT
5531 BROOKLYN G
RIPON, WI 54971
Phone 414-748-7480
Manager: TOM WILLETT
5531 BROOKLYN G
RIPON, WI 54971
Phone 414-748-7480

Airport Operational Statistics

Aircraft based on the field: 1
Single engine airplanes: 1
    

Additional Remarks

FOR CD CTC CHICAGO ARTCC AT 630-906-8921.

Instrument Procedures

There are no published instrument procedures at WS46.

Some nearby airports with instrument procedures:

KOSH - Wittman Regional Airport (17 nm NE)
KFLD - Fond Du Lac County Airport (18 nm E)
Y50 - Wautoma Municipal Airport (22 nm NW)
KUNU - Dodge County Airport (26 nm S)
KATW - Appleton International Airport (30 nm NE)
 
Loc | Ops | Rwys | IFR | FBO | Links
Com | Nav | Svcs | Stats | Notes
Area around WS46 (J & L Aviation Airport)
 
Road maps at: MapQuest Bing Google
 
Aerial photo
No photo
 
Sectional chart

 
Airport distance calculator
Flying to J & L Aviation Airport? Find the distance to fly.

From to WS46

Sunrise and sunset
Times for 09-Feb-2023
 Local
(UTC-6)
 Zulu
(UTC)
Morning civil twilight06:3412:34
Sunrise07:0413:04
Sunset17:1623:16
Evening civil twilight17:4623:46

Current date and time
Zulu (UTC)  09-Feb-2023 09:30:36
Local (UTC-6)  09-Feb-2023 03:30:36
 
METAR
KOSH 
17nm NE 
090853Z AUTO 36003KT 4SM BR CLR M01/M03 A2990 RMK AO2 SLP133 T10061028 58028
KFLD 
18nm E 
090853Z AUTO 35003KT 9SM FEW090 01/M03 A2989 RMK AO2 SLP129 T00061028 58031
KY50 
22nm NW 
090856Z AUTO 34003KT 10SM CLR M01/M02 A2990 RMK AO2 SLP129 6//// T10111022 58027 FZRANO $
KUNU 
26nm S 
090915Z AUTO 36003KT 10SM SCT085 OVC100 00/M01 A2987 RMK AO2 T00001015
KATW 
30nm NE 
090915Z AUTO 04004KT 10SM CLR 00/M02 A2988 RMK AO2
KPCZ 
31nm N 
090915Z AUTO 00000KT 10SM CLR 00/M02 A2990 RMK AO2 T00001022
TAF
NOTAMs
Click for the latest NOTAMs
NOTAMs are issued by the DoD/FAA and will open in a separate window not controlled by AirNav.

 

 
 

Would you like to see your business listed on this page?

 If your business provides an interesting product or service to pilots, flight crews, aircraft, or users of the J & L Aviation Airport, you should consider listing it here.  To start the listing process, click on the button below
 
Add a business
 

Other Pages about J & L Aviation Airport

Update a link
 
Copyright © AirNav, LLC. All rights reserved. Privacy Policy  Contact